Time;durP1;ratioP1;P1;durP2;ratioP2;P2;SDS_P1;SDS_P2;PMS_P1;PMS_P2;Temp;Humidity;BMP_temperature;BMP_pressure;BME280_temperature;BME280_humidity;BME280_pressure;Samples;Min_cycle;Max_cycle;Signal;HPM_P1;HPM_P2
2023/04/28 00:01:46;;;;;;;4.90;1.70;;;;;;;8.03;59.90;99345.20;107358;1257;69962;-39
2023/04/28 00:04:14;;;;;;;5.00;1.60;;;;;;;8.01;59.85;99343.67;107231;1256;74095;-39
2023/04/28 00:06:42;;;;;;;5.30;1.90;;;;;;;7.99;59.66;99341.38;107304;1257;61580;-39
2023/04/28 00:09:10;;;;;;;7.20;1.90;;;;;;;7.96;59.58;99340.98;107268;1257;61720;-39
2023/04/28 00:11:37;;;;;;;4.20;2.10;;;;;;;7.93;59.53;99338.96;105763;1257;1003523;-39
2023/04/28 00:14:05;;;;;;;4.00;1.60;;;;;;;7.89;59.72;99342.56;107315;1258;59384;-39
2023/04/28 00:16:32;;;;;;;4.50;1.70;;;;;;;7.89;59.58;99348.86;107085;1256;75693;-39
2023/04/28 00:19:00;;;;;;;4.40;1.80;;;;;;;7.85;59.75;99349.23;107310;1256;61431;-39
2023/04/28 00:21:27;;;;;;;7.50;2.00;;;;;;;7.82;60.03;99352.61;107298;1260;62069;-39
2023/04/28 00:23:54;;;;;;;6.90;1.80;;;;;;;7.80;59.93;99357.11;107276;1256;75301;-39
2023/04/28 00:26:22;;;;;;;4.50;2.10;;;;;;;7.79;59.95;99364.48;107274;1257;68690;-39
2023/04/28 00:28:49;;;;;;;5.80;1.90;;;;;;;7.77;59.86;99365.17;107243;1257;72843;-38
2023/04/28 00:31:18;;;;;;;4.30;1.70;;;;;;;7.75;59.79;99368.05;107254;1257;60553;-38
2023/04/28 00:33:45;;;;;;;4.70;1.90;;;;;;;7.73;59.96;99367.00;106530;1257;1002943;-38
2023/04/28 00:36:12;;;;;;;3.60;1.90;;;;;;;7.72;60.09;99369.12;107246;1257;75679;-38
2023/04/28 00:38:40;;;;;;;5.70;2.10;;;;;;;7.69;60.08;99370.73;107270;1257;69277;-38
2023/04/28 00:41:09;;;;;;;5.80;2.00;;;;;;;7.67;59.99;99372.84;107183;1259;74603;-39
2023/04/28 00:43:46;;;;;;;4.20;1.80;;;;;;;7.67;60.16;99373.83;107230;1257;60882;-39
2023/04/28 00:46:22;;;;;;;4.70;1.80;;;;;;;7.67;60.19;99378.21;107292;1257;60565;-39
2023/04/28 00:48:49;;;;;;;3.60;1.80;;;;;;;7.65;60.17;99377.77;106456;1257;1003707;-39
2023/04/28 00:51:16;;;;;;;5.40;2.20;;;;;;;7.63;59.94;99375.95;107246;1257;68863;-39
2023/04/28 00:53:44;;;;;;;3.00;1.70;;;;;;;7.60;59.60;99374.31;107239;1257;72005;-39
2023/04/28 00:56:11;;;;;;;5.70;2.10;;;;;;;7.56;59.38;99375.03;107244;1257;61876;-39
2023/04/28 00:58:39;;;;;;;6.90;1.70;;;;;;;7.50;59.30;99376.61;107151;1257;61497;-39
2023/04/28 01:01:07;;;;;;;7.00;2.20;;;;;;;7.44;59.51;99381.61;107157;1257;75978;-39
2023/04/28 01:03:38;;;;;;;5.50;1.90;;;;;;;7.40;59.55;99382.02;107090;1257;70296;-39
2023/04/28 01:06:07;;;;;;;4.30;1.70;;;;;;;7.38;59.76;99384.41;106277;1257;1004169;-39
2023/04/28 01:08:36;;;;;;;6.40;1.90;;;;;;;7.35;59.58;99387.09;107143;1257;60759;-39
2023/04/28 01:11:05;;;;;;;6.40;2.10;;;;;;;7.31;59.73;99390.29;107090;1257;60309;-39
2023/04/28 01:13:49;;;;;;;5.60;2.10;;;;;;;7.29;59.65;99388.43;107268;1257;72371;-39
2023/04/28 01:16:16;;;;;;;4.40;2.40;;;;;;;7.26;59.32;99391.83;107116;1257;68434;-39
2023/04/28 01:18:46;;;;;;;4.20;2.00;;;;;;;7.23;59.27;99395.92;107211;1257;72851;-39
2023/04/28 01:21:14;;;;;;;5.10;1.80;;;;;;;7.18;59.37;99399.09;107225;1262;61518;-38
2023/04/28 01:23:45;;;;;;;4.60;1.60;;;;;;;7.14;59.16;99399.91;107171;1257;60915;-39
2023/04/28 01:26:12;;;;;;;5.60;1.80;;;;;;;7.10;59.04;99404.40;107272;1260;76139;-39
2023/04/28 01:28:39;;;;;;;4.30;1.80;;;;;;;7.08;58.95;99407.39;107076;1257;70156;-39
2023/04/28 01:31:07;;;;;;;6.90;2.00;;;;;;;7.06;59.00;99406.32;107263;1257;74771;-39
2023/04/28 01:33:35;;;;;;;3.30;1.80;;;;;;;7.02;58.84;99407.55;107335;1257;61848;-39
2023/04/28 01:36:03;;;;;;;4.90;1.90;;;;;;;6.96;58.80;99407.55;107139;1257;60261;-39
2023/04/28 01:38:30;;;;;;;6.80;1.80;;;;;;;6.89;58.82;99403.61;107174;1257;76133;-39
2023/04/28 01:40:58;;;;;;;3.80;2.20;;;;;;;6.84;58.83;99404.67;107261;1260;68590;-38
2023/04/28 01:43:25;;;;;;;6.40;1.90;;;;;;;6.80;59.19;99404.21;107254;1257;74943;-39
2023/04/28 01:45:52;;;;;;;5.50;2.20;;;;;;;6.76;58.90;99405.63;107040;1257;61741;-39
2023/04/28 01:48:20;;;;;;;4.90;2.20;;;;;;;6.69;58.98;99409.27;107249;1256;60599;-38
2023/04/28 01:50:47;;;;;;;3.60;1.90;;;;;;;6.62;59.15;99407.51;107149;1257;75079;-38
2023/04/28 01:53:14;;;;;;;3.70;1.80;;;;;;;6.57;59.36;99404.86;107502;1259;68546;-39
2023/04/28 01:55:41;;;;;;;4.80;2.00;;;;;;;6.51;59.51;99406.46;107613;1254;74203;-38
2023/04/28 01:58:09;;;;;;;8.10;2.40;;;;;;;6.48;59.54;99408.40;107485;1255;60678;-39
2023/04/28 02:00:37;;;;;;;4.40;1.80;;;;;;;6.42;59.72;99406.30;107536;1258;61344;-39
2023/04/28 02:03:04;;;;;;;4.10;2.00;;;;;;;6.38;59.69;99404.75;106049;1258;1003779;-39
2023/04/28 02:05:33;;;;;;;5.30;2.00;;;;;;;6.33;59.68;99402.79;107439;1254;70085;-39
2023/04/28 02:08:01;;;;;;;7.50;2.00;;;;;;;6.26;59.71;99405.23;107347;1254;74432;-39
2023/04/28 02:10:28;;;;;;;5.50;1.80;;;;;;;6.20;59.92;99404.55;107414;1254;60441;-39
2023/04/28 02:12:55;;;;;;;6.00;2.10;;;;;;;6.16;60.06;99410.52;107578;1253;62439;-39
2023/04/28 02:15:23;;;;;;;4.10;1.70;;;;;;;6.10;60.03;99415.25;107585;1253;74638;-39
2023/04/28 02:17:52;;;;;;;4.80;2.10;;;;;;;6.04;60.30;99417.33;107566;1256;68226;-39
2023/04/28 02:20:19;;;;;;;4.00;2.30;;;;;;;5.97;60.37;99420.29;107434;1253;74592;-39
2023/04/28 02:22:47;;;;;;;7.70;2.70;;;;;;;5.91;60.63;99419.98;107587;1253;60427;-38
2023/04/28 02:25:14;;;;;;;3.80;2.30;;;;;;;5.85;60.79;99425.40;107543;1253;61464;-39
2023/04/28 02:27:42;;;;;;;5.80;2.40;;;;;;;5.82;61.03;99423.61;107638;1254;72948;-38
2023/04/28 02:30:09;;;;;;;6.40;2.20;;;;;;;5.85;60.94;99426.02;107631;1253;69943;-39
2023/04/28 02:32:37;;;;;;;7.10;2.10;;;;;;;5.90;61.14;99426.02;107643;1252;73820;-38
2023/04/28 02:35:05;;;;;;;6.10;1.90;;;;;;;5.89;60.91;99426.84;107625;1253;60392;-39
2023/04/28 02:37:32;;;;;;;5.00;2.30;;;;;;;5.88;61.10;99430.22;107497;1254;61118;-39
2023/04/28 02:40:00;;;;;;;4.80;2.00;;;;;;;5.89;61.08;99430.95;107479;1252;75319;-39
2023/04/28 02:42:27;;;;;;;4.00;1.80;;;;;;;5.90;60.90;99432.55;107618;1253;68887;-39
2023/04/28 02:44:54;;;;;;;4.20;1.90;;;;;;;5.90;60.82;99435.34;107631;1253;72585;-38
2023/04/28 02:47:21;;;;;;;3.10;1.80;;;;;;;5.88;60.94;99443.08;107526;1259;60433;-39
2023/04/28 02:49:49;;;;;;;6.40;2.00;;;;;;;5.84;60.78;99447.75;107542;1253;62625;-39
2023/04/28 02:52:16;;;;;;;3.90;1.90;;;;;;;5.77;60.99;99452.92;107495;1252;75229;-39
2023/04/28 02:54:47;;;;;;;5.30;2.50;;;;;;;5.72;61.05;99451.95;107604;1254;70262;-39
2023/04/28 02:57:15;;;;;;;5.00;1.90;;;;;;;5.68;61.10;99452.05;107567;1253;74251;-39
2023/04/28 02:59:42;;;;;;;5.60;2.00;;;;;;;5.64;61.17;99451.60;107497;1254;61541;-39
2023/04/28 03:02:10;;;;;;;3.70;1.90;;;;;;;5.59;61.33;99453.52;107600;1256;61808;-39
2023/04/28 03:04:37;;;;;;;3.50;2.10;;;;;;;5.54;61.47;99451.64;107605;1253;75672;-39
2023/04/28 03:07:05;;;;;;;3.90;1.90;;;;;;;5.48;61.46;99453.40;107474;1255;69188;-38
2023/04/28 03:09:33;;;;;;;5.60;2.00;;;;;;;5.44;61.73;99458.30;107653;1253;74947;-39
2023/04/28 03:12:02;;;;;;;4.00;2.10;;;;;;;5.39;61.67;99466.26;107518;1255;60565;-38
2023/04/28 03:14:30;;;;;;;5.60;2.30;;;;;;;5.35;61.81;99467.98;107538;1252;60520;-39
2023/04/28 03:19:53;;;;;;;4.60;2.00;;;;;;;5.28;61.95;99472.06;104179;1293;600120;-38
2023/04/28 03:22:20;;;;;;;3.50;1.80;;;;;;;5.28;61.93;99477.99;106591;1267;60629;-38
2023/04/28 03:24:48;;;;;;;3.90;1.90;;;;;;;5.33;61.96;99479.50;106679;1265;59297;-38
2023/04/28 03:27:15;;;;;;;3.90;1.90;;;;;;;5.34;61.97;99488.85;106680;1267;73330;-38
2023/04/28 03:29:42;;;;;;;4.40;2.00;;;;;;;5.35;61.93;99492.27;107026;1257;70319;-38
2023/04/28 03:32:09;;;;;;;2.70;1.70;;;;;;;5.36;62.10;99494.38;107143;1257;75014;-38
2023/04/28 03:34:37;;;;;;;2.70;1.80;;;;;;;5.39;61.98;99497.83;107160;1257;209623;-38
2023/04/28 03:37:05;;;;;;;5.80;1.90;;;;;;;5.40;62.13;99498.83;107259;1257;61873;-38
2023/04/28 03:39:33;;;;;;;5.50;2.10;;;;;;;5.39;62.00;99500.52;107347;1259;71442;-38
2023/04/28 03:42:00;;;;;;;5.10;1.90;;;;;;;5.39;61.98;99502.88;107310;1256;69372;-38
2023/04/28 03:44:36;;;;;;;6.70;2.60;;;;;;;5.39;62.25;99506.23;107289;1256;74976;-38
2023/04/28 03:47:05;;;;;;;4.10;1.70;;;;;;;5.38;62.21;99506.30;107326;1257;59859;-38
2023/04/28 03:49:32;;;;;;;5.20;2.00;;;;;;;5.37;62.11;99507.41;107367;1256;60202;-38
2023/04/28 03:52:00;;;;;;;7.80;2.40;;;;;;;5.37;62.12;99513.17;107341;1260;74648;-38
2023/04/28 03:54:28;;;;;;;6.00;2.20;;;;;;;5.38;62.26;99516.33;107383;1256;68959;-38
2023/04/28 03:56:56;;;;;;;4.00;2.00;;;;;;;5.39;62.25;99519.75;107306;1257;72806;-39
2023/04/28 03:59:24;;;;;;;3.40;1.80;;;;;;;5.41;61.97;99521.77;107075;1260;61764;-38
2023/04/28 04:01:51;;;;;;;3.80;1.80;;;;;;;5.44;61.81;99523.58;107071;1257;62330;-38
2023/04/28 04:04:18;;;;;;;4.60;2.30;;;;;;;5.52;61.86;99524.33;107059;1257;75172;-39
2023/04/28 04:06:46;;;;;;;4.70;2.00;;;;;;;5.57;61.70;99525.51;107121;1256;66583;-39
2023/04/28 04:09:14;;;;;;;3.50;1.80;;;;;;;5.57;61.46;99527.90;107150;1257;72845;-39
2023/04/28 04:11:42;;;;;;;5.50;2.00;;;;;;;5.58;61.44;99527.02;107066;1257;60101;-39
2023/04/28 04:14:09;;;;;;;6.90;2.00;;;;;;;5.63;61.94;99532.83;107108;1257;60899;-39
2023/04/28 04:16:37;;;;;;;4.20;2.00;;;;;;;5.70;62.17;99530.49;107006;1257;74407;-39
2023/04/28 04:19:05;;;;;;;3.80;2.10;;;;;;;5.79;62.10;99532.39;107152;1257;70281;-39
2023/04/28 04:21:43;;;;;;;9.50;2.20;;;;;;;5.87;61.73;99531.80;107157;1257;73400;-39
2023/04/28 04:24:10;;;;;;;5.70;2.30;;;;;;;5.88;61.34;99528.69;107018;1257;61711;-39
2023/04/28 04:26:37;;;;;;;6.90;2.50;;;;;;;5.89;61.25;99532.15;107043;1257;62552;-39
2023/04/28 04:29:18;;;;;;;3.50;2.10;;;;;;;5.89;60.96;99534.63;107236;1257;71640;-39
2023/04/28 04:31:45;;;;;;;7.00;2.10;;;;;;;5.87;60.71;99535.48;107035;1257;70399;-39
2023/04/28 04:34:12;;;;;;;6.20;2.10;;;;;;;5.86;61.04;99532.55;107068;1257;74578;-39
2023/04/28 04:36:40;;;;;;;5.20;2.20;;;;;;;5.87;61.31;99533.56;107244;1262;59820;-39
2023/04/28 04:39:08;;;;;;;4.20;2.30;;;;;;;5.89;61.36;99533.15;107090;1256;59605;-39
2023/04/28 04:41:35;;;;;;;5.00;2.40;;;;;;;5.94;61.18;99532.19;107073;1257;75079;-39
2023/04/28 04:44:18;;;;;;;4.50;2.10;;;;;;;5.96;60.95;99536.26;107039;1257;68572;-39
2023/04/28 04:46:47;;;;;;;6.20;2.00;;;;;;;5.97;60.93;99539.69;107032;1257;73696;-39
2023/04/28 04:49:14;;;;;;;6.90;2.00;;;;;;;5.98;60.95;99538.44;107089;1260;60063;-39
2023/04/28 04:51:42;;;;;;;4.20;2.00;;;;;;;5.99;61.18;99541.25;107260;1257;62632;-39
2023/04/28 04:54:09;;;;;;;5.30;2.20;;;;;;;6.03;60.99;99534.95;107073;1257;73863;-39
2023/04/28 04:56:37;;;;;;;6.30;2.10;;;;;;;6.19;61.03;99544.79;107248;1257;66746;-39
2023/04/28 04:59:05;;;;;;;12.10;2.80;;;;;;;6.29;60.73;99545.39;105707;1257;1003329;-39
2023/04/28 05:01:44;;;;;;;4.40;2.10;;;;;;;6.36;60.74;99541.91;107044;1257;62706;-39
2023/04/28 05:04:12;;;;;;;5.30;2.40;;;;;;;6.41;60.30;99543.03;107114;1257;62404;-39
2023/04/28 05:06:39;;;;;;;5.60;2.10;;;;;;;6.46;60.07;99539.21;107078;1257;75365;-39
2023/04/28 05:09:07;;;;;;;4.40;2.60;;;;;;;6.53;60.34;99540.27;106980;1257;69205;-39
2023/04/28 05:11:34;;;;;;;5.80;2.00;;;;;;;6.62;60.06;99543.33;107110;1261;72892;-39
2023/04/28 05:14:02;;;;;;;8.50;2.10;;;;;;;6.70;60.11;99540.10;107214;1257;59596;-39
2023/04/28 05:16:29;;;;;;;4.70;2.30;;;;;;;6.77;59.20;99547.98;107283;1257;60783;-39
2023/04/28 05:19:05;;;;;;;5.70;2.50;;;;;;;6.82;58.55;99547.77;107206;1257;73414;-39
2023/04/28 05:21:32;;;;;;;4.90;1.90;;;;;;;6.85;58.62;99549.20;107051;1257;69152;-39
2023/04/28 05:23:59;;;;;;;3.80;1.60;;;;;;;6.92;58.83;99552.64;107162;1257;74769;-39
2023/04/28 05:26:27;;;;;;;3.90;2.00;;;;;;;7.01;57.97;99551.70;107198;1260;60379;-39
2023/04/28 05:28:57;;;;;;;2.90;1.60;;;;;;;7.08;57.99;99554.02;107114;1258;61002;-39
2023/04/28 05:31:24;;;;;;;2.90;1.80;;;;;;;7.15;58.03;99551.52;107236;1257;71625;-39
2023/04/28 05:33:52;;;;;;;6.90;1.90;;;;;;;7.24;57.76;99557.61;107255;1257;66692;-39
2023/04/28 05:36:19;;;;;;;5.50;1.60;;;;;;;7.33;57.18;99560.09;107191;1259;73851;-39
2023/04/28 05:38:47;;;;;;;2.40;1.50;;;;;;;7.42;57.21;99561.92;107055;1260;59714;-39
2023/04/28 05:41:15;;;;;;;4.10;1.90;;;;;;;7.53;56.93;99564.00;107187;1257;59959;-39
2023/04/28 05:43:43;;;;;;;4.90;1.90;;;;;;;7.64;56.56;99561.67;107063;1257;75233;-39
2023/04/28 05:46:10;;;;;;;2.80;1.60;;;;;;;7.74;56.40;99562.56;107135;1257;66561;-39
2023/04/28 05:48:57;;;;;;;5.90;1.60;;;;;;;7.87;55.55;99565.20;107154;1259;71530;-39
2023/04/28 05:51:24;;;;;;;5.70;1.60;;;;;;;7.94;54.76;99562.83;107249;1257;59625;-39
2023/04/28 05:53:51;;;;;;;3.10;1.50;;;;;;;8.03;55.27;99567.36;107063;1257;62361;-39
2023/04/28 05:56:19;;;;;;;5.50;2.00;;;;;;;8.15;55.45;99565.41;107093;1257;74176;-39
2023/04/28 05:58:48;;;;;;;3.30;1.70;;;;;;;8.27;54.54;99566.20;107203;1256;67041;-39
2023/04/28 06:01:16;;;;;;;5.80;1.70;;;;;;;8.37;54.04;99568.05;107048;1257;74812;-39
2023/04/28 06:03:43;;;;;;;3.70;1.50;;;;;;;8.46;54.04;99570.42;107231;1257;61842;-39
2023/04/28 06:06:11;;;;;;;2.70;1.60;;;;;;;8.56;53.91;99570.76;107218;1262;62299;-41
2023/04/28 06:08:39;;;;;;;3.10;1.80;;;;;;;8.69;53.93;99562.23;107074;1257;75344;-39
2023/04/28 06:11:06;;;;;;;6.40;2.00;;;;;;;8.82;53.32;99562.95;107302;1263;69410;-39
2023/04/28 06:13:34;;;;;;;5.00;2.00;;;;;;;8.95;52.99;99559.52;107188;1259;73587;-39
2023/04/28 06:16:02;;;;;;;3.70;1.70;;;;;;;9.07;52.31;99558.94;107253;1257;59578;-39
2023/04/28 06:18:33;;;;;;;4.30;1.80;;;;;;;9.19;52.18;99554.70;107093;1257;60279;-39
2023/04/28 06:21:01;;;;;;;4.30;1.70;;;;;;;9.32;51.87;99554.12;107240;1257;75168;-39
2023/04/28 06:23:29;;;;;;;3.60;1.80;;;;;;;9.45;51.57;99556.33;107274;1257;68967;-39
2023/04/28 06:25:57;;;;;;;4.30;2.00;;;;;;;9.55;49.46;99549.48;107224;1257;71140;-39
2023/04/28 06:28:24;;;;;;;4.30;1.90;;;;;;;9.61;48.91;99547.62;107204;1257;61863;-39
2023/04/28 06:30:52;;;;;;;3.30;1.30;;;;;;;9.69;49.42;99546.12;106936;1257;59631;-39
2023/04/28 06:33:19;;;;;;;3.80;1.60;;;;;;;9.79;48.78;99546.61;106954;1256;74218;-39
2023/04/28 06:35:47;;;;;;;7.20;2.10;;;;;;;9.90;48.02;99541.69;107184;1257;70371;-39
2023/04/28 06:38:15;;;;;;;5.40;1.70;;;;;;;9.99;47.27;99543.70;107164;1257;73795;-39
2023/04/28 06:40:44;;;;;;;4.30;1.70;;;;;;;10.07;46.60;99546.96;107135;1257;62456;-39
2023/04/28 06:43:11;;;;;;;4.80;1.80;;;;;;;10.15;46.70;99547.87;107224;1261;60761;-39
2023/04/28 06:45:55;;;;;;;2.80;1.60;;;;;;;10.24;46.92;99548.48;107190;1257;73595;-39
2023/04/28 06:48:25;;;;;;;4.70;2.30;;;;;;;10.34;46.95;99555.94;107171;1257;68703;-39
2023/04/28 06:50:52;;;;;;;6.00;2.20;;;;;;;10.48;45.97;99556.46;107177;1257;74604;-39
2023/04/28 06:53:21;;;;;;;3.30;1.40;;;;;;;10.61;45.55;99560.70;107260;1257;61326;-39
2023/04/28 06:55:48;;;;;;;2.50;1.70;;;;;;;10.72;45.30;99564.89;107025;1262;61474;-39
2023/04/28 06:58:16;;;;;;;3.50;1.70;;;;;;;10.83;44.96;99567.54;107003;1257;75351;-39
2023/04/28 07:00:43;;;;;;;3.40;1.40;;;;;;;10.93;43.78;99563.86;107247;1257;69138;-39
2023/04/28 07:03:11;;;;;;;4.10;1.70;;;;;;;11.02;43.53;99564.27;107216;1257;74972;-39
2023/04/28 07:05:38;;;;;;;3.70;1.50;;;;;;;11.10;43.62;99566.30;107286;1261;62680;-39
2023/04/28 07:08:06;;;;;;;3.50;1.50;;;;;;;11.20;43.56;99565.27;107250;1257;60684;-39
2023/04/28 07:10:33;;;;;;;3.80;1.40;;;;;;;11.32;42.47;99562.15;107221;1257;75001;-39
2023/04/28 07:13:00;;;;;;;5.10;1.50;;;;;;;11.40;41.74;99567.11;107232;1257;69898;-39
2023/04/28 07:15:27;;;;;;;2.60;1.50;;;;;;;11.48;41.25;99564.84;107218;1257;71822;-39
2023/04/28 07:17:55;;;;;;;5.30;1.70;;;;;;;11.52;41.06;99559.73;107156;1260;60357;-39
2023/04/28 07:20:22;;;;;;;3.90;1.60;;;;;;;11.67;41.33;99565.59;107080;1257;61463;-39
2023/04/28 07:22:49;;;;;;;2.60;1.60;;;;;;;11.77;40.64;99562.54;107078;1257;73809;-39
2023/04/28 07:25:17;;;;;;;3.80;1.80;;;;;;;11.85;40.03;99559.48;107167;1262;70204;-39
2023/04/28 07:27:45;;;;;;;4.50;1.60;;;;;;;11.93;40.04;99563.66;107198;1257;71942;-39
2023/04/28 07:30:12;;;;;;;3.70;1.40;;;;;;;12.04;39.99;99562.59;107175;1259;61370;-39
2023/04/28 07:32:53;;;;;;;3.30;1.40;;;;;;;12.17;39.34;99564.96;107109;1257;61076;-39
2023/04/28 07:35:21;;;;;;;5.30;1.60;;;;;;;12.30;38.27;99568.74;107092;1257;74411;-39
2023/04/28 07:37:48;;;;;;;3.50;1.50;;;;;;;12.44;36.70;99570.66;107102;1257;70220;-39
2023/04/28 07:40:15;;;;;;;2.40;1.40;;;;;;;12.51;36.17;99560.59;107149;1263;74367;-39
2023/04/28 07:42:43;;;;;;;3.80;2.60;;;;;;;12.55;36.49;99564.14;107164;1258;60517;-39
2023/04/28 07:45:10;;;;;;;7.60;3.80;;;;;;;12.58;36.29;99565.20;107239;1257;62674;-39
2023/04/28 07:47:38;;;;;;;4.50;2.00;;;;;;;12.64;35.90;99571.89;107248;1258;75916;-39
2023/04/28 07:50:06;;;;;;;2.80;1.40;;;;;;;12.66;35.09;99570.83;107176;1261;68106;-39
2023/04/28 07:52:33;;;;;;;5.20;2.80;;;;;;;12.68;34.89;99573.17;107199;1257;73337;-39
2023/04/28 07:55:02;;;;;;;4.80;2.30;;;;;;;12.71;35.30;99570.19;107184;1257;60408;-39
2023/04/28 07:57:29;;;;;;;5.10;1.50;;;;;;;12.79;34.58;99574.42;107228;1257;61462;-39
2023/04/28 07:59:56;;;;;;;4.70;2.20;;;;;;;12.88;34.67;99571.42;107183;1256;75900;-39
2023/04/28 08:02:24;;;;;;;3.80;1.40;;;;;;;12.95;34.51;99574.09;107058;1257;69591;-39
2023/04/28 08:04:52;;;;;;;3.80;1.60;;;;;;;12.99;34.78;99568.07;107154;1257;72366;-39
2023/04/28 08:07:20;;;;;;;2.40;1.40;;;;;;;13.07;35.67;99569.19;107179;1257;62189;-39
2023/04/28 08:09:47;;;;;;;3.00;1.50;;;;;;;13.22;35.70;99567.83;107169;1257;61364;-39
2023/04/28 08:12:14;;;;;;;2.80;1.50;;;;;;;13.37;35.19;99569.09;107140;1257;74986;-39
2023/04/28 08:14:41;;;;;;;4.10;1.70;;;;;;;13.47;34.94;99571.06;107230;1257;69933;-39
2023/04/28 08:17:09;;;;;;;3.90;1.60;;;;;;;13.53;33.92;99572.13;107186;1259;73895;-39
2023/04/28 08:19:36;;;;;;;6.20;1.70;;;;;;;13.55;34.71;99566.79;107241;1257;60708;-39
2023/04/28 08:22:05;;;;;;;3.50;1.60;;;;;;;13.64;34.72;99572.86;107285;1258;60974;-39
2023/04/28 08:24:33;;;;;;;3.50;1.30;;;;;;;13.71;35.19;99566.08;107257;1257;75949;-39
2023/04/28 08:27:02;;;;;;;3.30;1.50;;;;;;;13.80;34.81;99562.11;107279;1257;70065;-39
2023/04/28 08:29:30;;;;;;;3.40;1.60;;;;;;;13.93;35.17;99561.92;107301;1258;73550;-40
2023/04/28 08:31:58;;;;;;;4.30;1.30;;;;;;;14.02;34.84;99569.70;107299;1257;60418;-39
2023/04/28 08:34:25;;;;;;;4.10;1.20;;;;;;;14.05;33.20;99572.69;107273;1257;61040;-39
2023/04/28 08:36:53;;;;;;;5.20;1.70;;;;;;;14.06;34.32;99568.80;107270;1257;74538;-39
2023/04/28 08:39:22;;;;;;;2.90;1.40;;;;;;;14.12;34.30;99570.10;107215;1258;70416;-39
2023/04/28 08:41:50;;;;;;;3.80;1.40;;;;;;;14.23;33.91;99566.05;107227;1258;74516;-39
2023/04/28 08:44:17;;;;;;;3.40;1.30;;;;;;;14.37;33.29;99571.40;107186;1257;62587;-39
2023/04/28 08:46:45;;;;;;;2.80;1.30;;;;;;;14.48;33.07;99567.27;107267;1261;62046;-39
2023/04/28 08:49:17;;;;;;;2.20;1.00;;;;;;;14.56;34.01;99574.73;107209;1257;76060;-39
2023/04/28 08:52:08;;;;;;;4.70;1.80;;;;;;;14.58;33.42;99576.69;107178;1257;67462;-39
2023/04/28 08:54:35;;;;;;;3.20;1.90;;;;;;;14.46;33.47;99573.89;107080;1257;74164;-39
2023/04/28 08:57:04;;;;;;;4.10;2.00;;;;;;;14.30;33.59;99570.16;107209;1257;62358;-39
2023/04/28 08:59:31;;;;;;;5.50;2.40;;;;;;;14.22;34.16;99567.30;107241;1261;60891;-39
2023/04/28 09:01:59;;;;;;;4.00;1.30;;;;;;;14.21;34.61;99565.20;107379;1254;75659;-39
2023/04/28 09:04:27;;;;;;;5.70;1.50;;;;;;;14.23;34.78;99567.54;107495;1254;70041;-39
2023/04/28 09:06:54;;;;;;;3.50;1.40;;;;;;;14.25;34.80;99571.06;107572;1254;74597;-40
2023/04/28 09:09:28;;;;;;;3.30;1.50;;;;;;;14.27;34.74;99577.79;107563;1255;62404;-39
2023/04/28 09:12:00;;;;;;;3.40;1.10;;;;;;;14.23;34.62;99564.42;107520;1254;62859;-39
2023/04/28 09:14:29;;;;;;;4.10;1.30;;;;;;;14.18;34.78;99568.12;107445;1260;75832;-39
2023/04/28 09:16:56;;;;;;;3.50;1.60;;;;;;;14.22;34.64;99567.60;107437;1259;70741;-39
2023/04/28 09:19:24;;;;;;;3.40;1.10;;;;;;;14.24;34.96;99570.20;107338;1254;72598;-39
2023/04/28 09:21:54;;;;;;;4.90;1.30;;;;;;;14.28;34.42;99568.74;107383;1254;61104;-39
2023/04/28 09:24:35;;;;;;;4.40;1.20;;;;;;;14.28;33.69;99563.61;107350;1254;62124;-39
2023/04/28 09:27:03;;;;;;;3.30;1.80;;;;;;;14.29;34.37;99570.30;107427;1254;74714;-39
2023/04/28 09:29:30;;;;;;;3.40;2.30;;;;;;;14.30;33.17;99570.31;107388;1259;69974;-39
2023/04/28 09:32:14;;;;;;;4.30;2.70;;;;;;;14.27;33.55;99569.90;107523;1255;73468;-39
2023/04/28 09:34:46;;;;;;;3.10;1.50;;;;;;;14.34;34.84;99569.02;107457;1254;62001;-39
2023/04/28 09:37:18;;;;;;;3.00;1.30;;;;;;;14.47;34.77;99567.88;107483;1254;60936;-39
2023/04/28 09:39:48;;;;;;;3.60;1.70;;;;;;;14.55;34.69;99564.74;107513;1254;72260;-39
2023/04/28 09:42:35;;;;;;;3.90;2.10;;;;;;;14.54;34.90;99566.92;107507;1260;68623;-39
2023/04/28 09:45:04;;;;;;;3.60;1.80;;;;;;;14.58;34.74;99568.12;107514;1260;75035;-39
2023/04/28 09:47:34;;;;;;;3.70;1.80;;;;;;;14.72;34.54;99562.42;107515;1254;62672;-39
2023/04/28 09:50:08;;;;;;;3.60;1.50;;;;;;;14.95;35.01;99553.96;107506;1254;61612;-39
2023/04/28 09:52:35;;;;;;;4.90;2.30;;;;;;;15.16;34.76;99556.92;107506;1259;75828;-39
2023/04/28 09:55:05;;;;;;;4.40;2.50;;;;;;;15.25;33.27;99564.14;107405;1254;69895;-39
2023/04/28 09:57:33;;;;;;;3.00;1.30;;;;;;;15.13;32.15;99561.67;107433;1258;74930;-39
2023/04/28 10:00:01;;;;;;;2.20;1.20;;;;;;;14.99;32.68;99563.97;107408;1254;61539;-39
2023/04/28 10:02:31;;;;;;;3.50;2.00;;;;;;;15.00;33.13;99570.36;107431;1254;62446;-39
2023/04/28 10:05:09;;;;;;;8.70;4.50;;;;;;;15.18;33.27;99561.15;107426;1254;76152;-39
2023/04/28 10:07:38;;;;;;;3.70;2.30;;;;;;;15.46;33.12;99564.13;107555;1254;69505;-39
2023/04/28 10:10:06;;;;;;;4.00;1.50;;;;;;;15.79;33.02;99564.21;107430;1254;74275;-39
2023/04/28 10:12:36;;;;;;;4.70;1.50;;;;;;;16.04;32.80;99569.30;107354;1260;60659;-39
2023/04/28 10:15:09;;;;;;;4.90;1.50;;;;;;;16.12;32.49;99565.30;107382;1254;62340;-39
2023/04/28 10:17:37;;;;;;;4.60;2.30;;;;;;;16.12;32.14;99573.67;107337;1254;75596;-40
2023/04/28 10:20:05;;;;;;;3.80;1.70;;;;;;;16.17;31.76;99575.55;107355;1254;67819;-39
2023/04/28 10:22:48;;;;;;;2.10;1.20;;;;;;;16.33;31.52;99570.06;107380;1259;70711;-39
2023/04/28 10:25:25;;;;;;;3.60;1.30;;;;;;;16.54;30.67;99564.34;107313;1257;60525;-39
2023/04/28 10:27:52;;;;;;;2.70;1.30;;;;;;;16.69;30.04;99551.49;107273;1254;61085;-39
2023/04/28 10:30:21;;;;;;;4.00;1.40;;;;;;;16.75;29.04;99543.34;107197;1254;75997;-40
2023/04/28 10:33:13;;;;;;;4.40;1.40;;;;;;;16.61;29.91;99559.24;107284;1254;69776;-39
2023/04/28 10:35:42;;;;;;;4.80;1.80;;;;;;;16.39;31.81;99563.57;107292;1257;71877;-40
2023/04/28 10:38:13;;;;;;;6.10;2.50;;;;;;;16.20;31.72;99566.17;107308;1254;60386;-40
2023/04/28 10:40:41;;;;;;;3.90;1.80;;;;;;;15.97;31.58;99566.02;107319;1259;61879;-39
2023/04/28 10:43:13;;;;;;;3.20;1.10;;;;;;;15.77;32.21;99571.23;107333;1254;75021;-39
2023/04/28 10:45:55;;;;;;;2.60;1.00;;;;;;;15.80;32.52;99569.04;107376;1254;69483;-40
2023/04/28 10:48:33;;;;;;;5.60;1.20;;;;;;;16.14;32.34;99570.69;107338;1257;74237;-39
2023/04/28 10:51:08;;;;;;;3.40;1.40;;;;;;;16.35;31.05;99563.11;107357;1254;62432;-39
2023/04/28 10:53:44;;;;;;;6.30;2.10;;;;;;;16.28;31.28;99565.84;107337;1259;61648;-39
2023/04/28 10:56:18;;;;;;;4.40;1.60;;;;;;;16.14;31.45;99568.82;107358;1254;75685;-39
2023/04/28 10:58:45;;;;;;;4.10;2.00;;;;;;;16.16;31.11;99567.65;107339;1254;68193;-39
2023/04/28 11:01:29;;;;;;;3.10;1.30;;;;;;;16.33;30.36;99561.93;107334;1254;74063;-39
2023/04/28 11:04:09;;;;;;;3.50;1.20;;;;;;;16.49;30.20;99560.98;107286;1259;61724;-39
2023/04/28 11:06:40;;;;;;;3.50;1.30;;;;;;;16.60;29.89;99557.85;107201;1254;61652;-39
2023/04/28 11:09:13;;;;;;;5.70;1.40;;;;;;;16.64;31.09;99553.55;107285;1257;75461;-39
2023/04/28 11:11:55;;;;;;;2.70;1.20;;;;;;;16.83;30.20;99548.16;107339;1259;70346;-39
2023/04/28 11:14:22;;;;;;;5.10;1.70;;;;;;;16.90;30.38;99557.37;107313;1260;75007;-39
2023/04/28 11:17:07;;;;;;;4.90;1.30;;;;;;;16.85;30.07;99559.35;107342;1257;61243;-40
2023/04/28 11:19:36;;;;;;;7.30;1.30;;;;;;;16.92;30.50;99550.70;107385;1260;60402;-39
2023/04/28 11:22:10;;;;;;;3.50;1.20;;;;;;;17.20;30.32;99538.94;107383;1254;74711;-40
2023/04/28 11:24:37;;;;;;;3.50;1.10;;;;;;;17.50;30.46;99536.89;107277;1254;70741;-39
2023/04/28 11:27:04;;;;;;;2.90;1.40;;;;;;;17.60;29.93;99541.38;107268;1259;74881;-39
2023/04/28 11:29:34;;;;;;;2.20;1.30;;;;;;;17.53;29.43;99542.81;107320;1258;60884;-39
2023/04/28 11:32:05;;;;;;;4.10;1.20;;;;;;;17.39;29.64;99538.83;107369;1255;60919;-40
2023/04/28 11:34:33;;;;;;;3.00;1.10;;;;;;;17.33;30.48;99538.77;107389;1254;74027;-39
2023/04/28 11:37:00;;;;;;;2.90;1.20;;;;;;;17.33;29.01;99542.45;107364;1259;70874;-40
2023/04/28 11:39:28;;;;;;;4.00;1.40;;;;;;;17.35;29.20;99539.24;107324;1258;74916;-39
2023/04/28 11:42:01;;;;;;;2.80;1.30;;;;;;;17.57;29.25;99545.84;107300;1259;61208;-39